PWSweather.com
Personal Weather Stations
Station Observations
KOMOKA2
Middlesex Centre, Komoka, ON N0L 1R0

Middlesex CentreKomoka, ON N0L 1R0

Lat: 42.9542444, Lon: -81.4348861

Elevation: 805

Station Type: Davis VP2 w/ Vue Console

High Low Average
Temperature 67.3°F19.6°C 51.6°F10.9°C 62.0°F16.7°C
Dew Point 59.0°F15.0°C 44.0°F6.7°C 53.2°F11.8°C
Winds 4.1 mph 6.6 kmh Calm Calm 1.0 mph N1.6 kmh N
Wind Gusts 15.0 mph24.1 kmh -- 5.0 mph8.0 kmh
Humidity 77% 65% 73%
Pressure 30.27 in1025.1 mb 29.82 in1009.8 mb -
Precipitation 0.18 in4.6 mm - -
Hour Temp Dew Point Humidity Winds Wind Gusts Pressure Precip Precip Rate Daily Precip Total
12:00 AM 62.3°F16.8°C 52.0°F11.1°C 69% Calm Calm -- 29.82 in1009.8 mb 0.00 in0.0 mm 0.00 in0.0 mm 0.00 in0.0 mm
12:05 AM 62.1°F16.7°C 52.0°F11.1°C 69% Calm Calm -- 29.82 in1009.8 mb 0.00 in0.0 mm 0.00 in0.0 mm 0.00 in0.0 mm
12:10 AM 61.8°F16.6°C 51.0°F10.6°C 69% Calm Calm -- 29.82 in1009.8 mb 0.00 in0.0 mm 0.00 in0.0 mm 0.00 in0.0 mm
12:15 AM 61.8°F16.6°C 52.0°F11.1°C 70% Calm Calm -- 29.83 in1010.2 mb 0.00 in0.0 mm 0.00 in0.0 mm 0.00 in0.0 mm
12:20 AM 62.0°F16.7°C 52.0°F11.1°C 70% Calm Calm -- 29.84 in1010.5 mb 0.00 in0.0 mm 0.00 in0.0 mm 0.00 in0.0 mm
12:25 AM 62.2°F16.8°C 52.0°F11.1°C 69% Calm Calm -- 29.84 in1010.5 mb 0.00 in0.0 mm 0.00 in0.0 mm 0.00 in0.0 mm
12:30 AM 62.3°F16.8°C 52.0°F11.1°C 70% Calm Calm -- 29.85 in1010.8 mb 0.00 in0.0 mm 0.00 in0.0 mm 0.00 in0.0 mm
12:35 AM 62.4°F16.9°C 52.0°F11.1°C 69% Calm Calm -- 29.85 in1010.8 mb 0.00 in0.0 mm 0.00 in0.0 mm 0.00 in0.0 mm
12:40 AM 62.5°F16.9°C 52.0°F11.1°C 69% Calm Calm -- 29.85 in1010.8 mb 0.00 in0.0 mm 0.00 in0.0 mm 0.00 in0.0 mm
12:45 AM 62.6°F17.0°C 52.0°F11.1°C 69% Calm Calm -- 29.86 in1011.2 mb 0.00 in0.0 mm 0.00 in0.0 mm 0.00 in0.0 mm
12:50 AM 62.7°F17.1°C 52.0°F11.1°C 69% Calm Calm -- 29.86 in1011.2 mb 0.00 in0.0 mm 0.00 in0.0 mm 0.00 in0.0 mm
12:55 AM 62.6°F17.0°C 52.0°F11.1°C 69% Calm Calm -- 29.86 in1011.2 mb 0.00 in0.0 mm 0.00 in0.0 mm 0.00 in0.0 mm
01:00 AM 62.4°F16.9°C 52.0°F11.1°C 69% Calm Calm -- 29.86 in1011.2 mb 0.00 in0.0 mm 0.00 in0.0 mm 0.00 in0.0 mm
01:05 AM 62.4°F16.9°C 52.0°F11.1°C 70% Calm Calm -- 29.87 in1011.5 mb 0.00 in0.0 mm 0.00 in0.0 mm 0.00 in0.0 mm
01:10 AM 62.3°F16.8°C 53.0°F11.7°C 71% Calm Calm -- 29.87 in1011.5 mb 0.00 in0.0 mm 0.00 in0.0 mm 0.00 in0.0 mm
01:15 AM 62.3°F16.8°C 53.0°F11.7°C 72% Calm Calm -- 29.87 in1011.5 mb 0.00 in0.0 mm 0.00 in0.0 mm 0.00 in0.0 mm
01:20 AM 62.5°F16.9°C 54.0°F12.2°C 74% Calm Calm 1.0 mph1.6 kmh 29.88 in1011.9 mb 0.00 in0.0 mm 0.00 in0.0 mm 0.00 in0.0 mm
01:25 AM 62.7°F17.1°C 55.0°F12.8°C 75% Calm Calm 1.0 mph1.6 kmh 29.88 in1011.9 mb 0.00 in0.0 mm 0.00 in0.0 mm 0.00 in0.0 mm
01:30 AM 63.1°F17.3°C 55.0°F12.8°C 75% 0.1 mph N0.2 kmh N 3.0 mph4.8 kmh 29.89 in1012.2 mb 0.00 in0.0 mm 0.00 in0.0 mm 0.00 in0.0 mm
01:35 AM 64.0°F17.8°C 56.0°F13.3°C 75% 1.5 mph N2.4 kmh N 8.0 mph12.9 kmh 29.89 in1012.2 mb 0.00 in0.0 mm 0.00 in0.0 mm 0.01 in0.3 mm
01:40 AM 64.9°F18.3°C 56.0°F13.3°C 72% 2.7 mph N4.3 kmh N 8.0 mph12.9 kmh 29.89 in1012.2 mb 0.00 in0.0 mm 0.00 in0.0 mm 0.01 in0.3 mm
01:45 AM 65.0°F18.3°C 54.0°F12.2°C 68% 2.3 mph N3.7 kmh N 5.0 mph8.0 kmh 29.89 in1012.2 mb 0.00 in0.0 mm 0.00 in0.0 mm 0.01 in0.3 mm
01:50 AM 65.3°F18.5°C 54.0°F12.2°C 66% 2.5 mph N4.0 kmh N 8.0 mph12.9 kmh 29.89 in1012.2 mb 0.00 in0.0 mm 0.00 in0.0 mm 0.01 in0.3 mm
01:55 AM 65.6°F18.7°C 54.0°F12.2°C 66% 2.7 mph N4.3 kmh N 8.0 mph12.9 kmh 29.88 in1011.9 mb 0.00 in0.0 mm 0.00 in0.0 mm 0.01 in0.3 mm
02:00 AM 65.8°F18.8°C 54.0°F12.2°C 65% 2.6 mph N4.2 kmh N 7.0 mph11.3 kmh 29.88 in1011.9 mb 0.00 in0.0 mm 0.00 in0.0 mm 0.01 in0.3 mm
02:05 AM 65.8°F18.8°C 54.0°F12.2°C 65% 3.0 mph N4.8 kmh N 8.0 mph12.9 kmh 29.88 in1011.9 mb 0.00 in0.0 mm 0.00 in0.0 mm 0.02 in0.5 mm
02:10 AM 65.5°F18.6°C 54.0°F12.2°C 66% 3.3 mph N5.3 kmh N 10.0 mph16.1 kmh 29.88 in1011.9 mb 0.28 in7.1 mm 3.36 in85.3 mm 0.04 in1.0 mm
02:15 AM 65.2°F18.4°C 54.0°F12.2°C 67% 3.5 mph N5.6 kmh N 7.0 mph11.3 kmh 29.88 in1011.9 mb 0.13 in3.3 mm 0.00 in0.0 mm 0.05 in1.3 mm
02:20 AM 64.9°F18.3°C 54.0°F12.2°C 67% 2.8 mph N4.5 kmh N 7.0 mph11.3 kmh 29.88 in1011.9 mb 0.11 in2.8 mm 0.00 in0.0 mm 0.06 in1.5 mm
02:25 AM 64.8°F18.2°C 54.0°F12.2°C 68% 2.1 mph N3.4 kmh N 6.0 mph9.7 kmh 29.88 in1011.9 mb 0.14 in3.6 mm 0.36 in9.1 mm 0.07 in1.8 mm
02:30 AM 64.6°F18.1°C 54.0°F12.2°C 69% 1.8 mph N2.9 kmh N 5.0 mph8.0 kmh 29.88 in1011.9 mb 0.08 in2.0 mm 0.00 in0.0 mm 0.07 in1.8 mm
02:35 AM 64.5°F18.1°C 55.0°F12.8°C 70% 1.7 mph N2.7 kmh N 5.0 mph8.0 kmh 29.87 in1011.5 mb 0.13 in3.3 mm 0.60 in15.2 mm 0.09 in2.3 mm
02:40 AM 64.5°F18.1°C 55.0°F12.8°C 71% 2.3 mph N3.7 kmh N 5.0 mph8.0 kmh 29.87 in1011.5 mb 0.13 in3.3 mm 0.00 in0.0 mm 0.09 in2.3 mm
02:45 AM 64.4°F18.0°C 55.0°F12.8°C 72% 1.8 mph N2.9 kmh N 5.0 mph8.0 kmh 29.87 in1011.5 mb 0.07 in1.8 mm 0.00 in0.0 mm 0.10 in2.5 mm
02:50 AM 64.3°F17.9°C 55.0°F12.8°C 72% 1.3 mph N2.1 kmh N 6.0 mph9.7 kmh 29.86 in1011.2 mb 0.07 in1.8 mm 0.00 in0.0 mm 0.10 in2.5 mm
02:55 AM 64.3°F17.9°C 55.0°F12.8°C 73% 1.2 mph N1.9 kmh N 6.0 mph9.7 kmh 29.86 in1011.2 mb 0.04 in1.0 mm 0.00 in0.0 mm 0.11 in2.8 mm
03:00 AM 64.3°F17.9°C 56.0°F13.3°C 74% 0.6 mph N1.0 kmh N 4.0 mph6.4 kmh 29.86 in1011.2 mb 0.04 in1.0 mm 0.00 in0.0 mm 0.11 in2.8 mm
03:05 AM 64.2°F17.9°C 56.0°F13.3°C 74% 1.1 mph N1.8 kmh N 4.0 mph6.4 kmh 29.87 in1011.5 mb 0.06 in1.5 mm 0.24 in6.1 mm 0.12 in3.0 mm
03:10 AM 64.2°F17.9°C 56.0°F13.3°C 74% 1.4 mph N2.3 kmh N 4.0 mph6.4 kmh 29.87 in1011.5 mb 0.06 in1.5 mm 0.00 in0.0 mm 0.12 in3.0 mm
03:15 AM 64.2°F17.9°C 56.0°F13.3°C 75% 0.8 mph N1.3 kmh N 4.0 mph6.4 kmh 29.87 in1011.5 mb 0.04 in1.0 mm 0.00 in0.0 mm 0.12 in3.0 mm
03:20 AM 64.2°F17.9°C 56.0°F13.3°C 75% 0.5 mph N0.8 kmh N 3.0 mph4.8 kmh 29.86 in1011.2 mb 0.03 in0.8 mm 0.00 in0.0 mm 0.12 in3.0 mm
03:25 AM 64.1°F17.8°C 56.0°F13.3°C 75% 0.3 mph N0.5 kmh N 2.0 mph3.2 kmh 29.86 in1011.2 mb 0.00 in0.0 mm 0.00 in0.0 mm 0.12 in3.0 mm
03:30 AM 64.1°F17.8°C 56.0°F13.3°C 75% 0.4 mph N0.6 kmh N 2.0 mph3.2 kmh 29.87 in1011.5 mb 0.00 in0.0 mm 0.00 in0.0 mm 0.12 in3.0 mm
03:35 AM 64.2°F17.9°C 57.0°F13.9°C 76% 0.7 mph N1.1 kmh N 2.0 mph3.2 kmh 29.88 in1011.9 mb 0.00 in0.0 mm 0.00 in0.0 mm 0.12 in3.0 mm
03:40 AM 64.2°F17.9°C 57.0°F13.9°C 76% 0.5 mph N0.8 kmh N 2.0 mph3.2 kmh 29.88 in1011.9 mb 0.00 in0.0 mm 0.00 in0.0 mm 0.13 in3.3 mm
03:45 AM 64.2°F17.9°C 57.0°F13.9°C 76% 0.6 mph N1.0 kmh N 3.0 mph4.8 kmh 29.89 in1012.2 mb 0.00 in0.0 mm 0.00 in0.0 mm 0.13 in3.3 mm
03:50 AM 64.1°F17.8°C 56.0°F13.3°C 76% 0.8 mph N1.3 kmh N 4.0 mph6.4 kmh 29.89 in1012.2 mb 0.00 in0.0 mm 0.00 in0.0 mm 0.13 in3.3 mm
03:55 AM 64.1°F17.8°C 56.0°F13.3°C 76% 0.6 mph N1.0 kmh N 4.0 mph6.4 kmh 29.88 in1011.9 mb 0.00 in0.0 mm 0.00 in0.0 mm 0.13 in3.3 mm
04:00 AM 64.1°F17.8°C 56.0°F13.3°C 76% 0.3 mph N0.5 kmh N 3.0 mph4.8 kmh 29.88 in1011.9 mb 0.00 in0.0 mm 0.00 in0.0 mm 0.13 in3.3 mm
04:05 AM 64.0°F17.8°C 56.0°F13.3°C 76% Calm Calm 1.0 mph1.6 kmh 29.88 in1011.9 mb 0.00 in0.0 mm 0.00 in0.0 mm 0.13 in3.3 mm
04:10 AM 64.0°F17.8°C 56.0°F13.3°C 76% 0.1 mph N0.2 kmh N 1.0 mph1.6 kmh 29.87 in1011.5 mb 0.00 in0.0 mm 0.00 in0.0 mm 0.13 in3.3 mm
04:15 AM 63.9°F17.7°C 56.0°F13.3°C 76% 0.1 mph N0.2 kmh N 1.0 mph1.6 kmh 29.86 in1011.2 mb 0.00 in0.0 mm 0.00 in0.0 mm 0.13 in3.3 mm
04:20 AM 63.8°F17.7°C 56.0°F13.3°C 76% Calm Calm 1.0 mph1.6 kmh 29.85 in1010.8 mb 0.00 in0.0 mm 0.00 in0.0 mm 0.13 in3.3 mm
04:25 AM 63.7°F17.6°C 56.0°F13.3°C 76% 0.3 mph N0.5 kmh N 3.0 mph4.8 kmh 29.84 in1010.5 mb 0.00 in0.0 mm 0.00 in0.0 mm 0.13 in3.3 mm
04:30 AM 63.7°F17.6°C 56.0°F13.3°C 76% 0.3 mph N0.5 kmh N 3.0 mph4.8 kmh 29.84 in1010.5 mb 0.00 in0.0 mm 0.00 in0.0 mm 0.13 in3.3 mm
04:35 AM 63.6°F17.6°C 56.0°F13.3°C 76% Calm Calm 1.0 mph1.6 kmh 29.84 in1010.5 mb 0.00 in0.0 mm 0.00 in0.0 mm 0.13 in3.3 mm
04:40 AM 63.5°F17.5°C 56.0°F13.3°C 76% Calm Calm -- 29.84 in1010.5 mb 0.00 in0.0 mm 0.00 in0.0 mm 0.13 in3.3 mm
04:45 AM 63.6°F17.6°C 56.0°F13.3°C 76% Calm Calm 1.0 mph1.6 kmh 29.86 in1011.2 mb 0.00 in0.0 mm 0.00 in0.0 mm 0.13 in3.3 mm
04:50 AM 63.7°F17.6°C 56.0°F13.3°C 76% 0.3 mph N0.5 kmh N 2.0 mph3.2 kmh 29.87 in1011.5 mb 0.00 in0.0 mm 0.00 in0.0 mm 0.13 in3.3 mm
04:55 AM 63.7°F17.6°C 56.0°F13.3°C 76% 0.3 mph N0.5 kmh N 2.0 mph3.2 kmh 29.88 in1011.9 mb 0.00 in0.0 mm 0.00 in0.0 mm 0.13 in3.3 mm
05:00 AM 63.7°F17.6°C 56.0°F13.3°C 76% 0.4 mph N0.6 kmh N 2.0 mph3.2 kmh 29.89 in1012.2 mb 0.00 in0.0 mm 0.00 in0.0 mm 0.13 in3.3 mm
05:05 AM 63.7°F17.6°C 56.0°F13.3°C 76% 0.6 mph N1.0 kmh N 2.0 mph3.2 kmh 29.90 in1012.5 mb 0.00 in0.0 mm 0.00 in0.0 mm 0.13 in3.3 mm
05:10 AM 63.7°F17.6°C 56.0°F13.3°C 76% 0.4 mph N0.6 kmh N 4.0 mph6.4 kmh 29.90 in1012.5 mb 0.00 in0.0 mm 0.00 in0.0 mm 0.13 in3.3 mm
05:15 AM 63.7°F17.6°C 56.0°F13.3°C 76% 0.5 mph N0.8 kmh N 4.0 mph6.4 kmh 29.90 in1012.5 mb 0.00 in0.0 mm 0.00 in0.0 mm 0.13 in3.3 mm
05:20 AM 63.7°F17.6°C 56.0°F13.3°C 76% 0.4 mph N0.6 kmh N 2.0 mph3.2 kmh 29.90 in1012.5 mb 0.00 in0.0 mm 0.00 in0.0 mm 0.13 in3.3 mm
05:25 AM 63.7°F17.6°C 56.0°F13.3°C 76% 0.1 mph N0.2 kmh N -- 29.90 in1012.5 mb 0.00 in0.0 mm 0.00 in0.0 mm 0.13 in3.3 mm
05:30 AM 63.6°F17.6°C 56.0°F13.3°C 76% Calm Calm -- 29.91 in1012.9 mb 0.00 in0.0 mm 0.00 in0.0 mm 0.13 in3.3 mm
05:35 AM 63.5°F17.5°C 56.0°F13.3°C 76% Calm Calm -- 29.91 in1012.9 mb 0.00 in0.0 mm 0.00 in0.0 mm 0.13 in3.3 mm
05:40 AM 63.5°F17.5°C 56.0°F13.3°C 76% 0.4 mph N0.6 kmh N 3.0 mph4.8 kmh 29.91 in1012.9 mb 0.00 in0.0 mm 0.00 in0.0 mm 0.13 in3.3 mm
05:45 AM 63.5°F17.5°C 56.0°F13.3°C 76% 1.1 mph N1.8 kmh N 4.0 mph6.4 kmh 29.90 in1012.5 mb 0.00 in0.0 mm 0.00 in0.0 mm 0.13 in3.3 mm
05:50 AM 63.5°F17.5°C 56.0°F13.3°C 76% 1.1 mph N1.8 kmh N 4.0 mph6.4 kmh 29.91 in1012.9 mb 0.00 in0.0 mm 0.00 in0.0 mm 0.13 in3.3 mm
05:55 AM 63.5°F17.5°C 56.0°F13.3°C 76% 1.1 mph N1.8 kmh N 4.0 mph6.4 kmh 29.91 in1012.9 mb 0.00 in0.0 mm 0.00 in0.0 mm 0.13 in3.3 mm
06:00 AM 63.5°F17.5°C 56.0°F13.3°C 76% 0.8 mph N1.3 kmh N 3.0 mph4.8 kmh 29.91 in1012.9 mb 0.00 in0.0 mm 0.00 in0.0 mm 0.13 in3.3 mm
06:05 AM 63.4°F17.4°C 56.0°F13.3°C 76% 0.2 mph N0.3 kmh N 3.0 mph4.8 kmh 29.91 in1012.9 mb 0.00 in0.0 mm 0.00 in0.0 mm 0.13 in3.3 mm
06:10 AM 63.3°F17.4°C 56.0°F13.3°C 77% 0.1 mph N0.2 kmh N 1.0 mph1.6 kmh 29.91 in1012.9 mb 0.00 in0.0 mm 0.00 in0.0 mm 0.13 in3.3 mm
06:15 AM 63.4°F17.4°C 56.0°F13.3°C 77% Calm Calm 1.0 mph1.6 kmh 29.91 in1012.9 mb 0.00 in0.0 mm 0.00 in0.0 mm 0.13 in3.3 mm
06:20 AM 63.4°F17.4°C 56.0°F13.3°C 77% Calm Calm 1.0 mph1.6 kmh 29.91 in1012.9 mb 0.00 in0.0 mm 0.00 in0.0 mm 0.13 in3.3 mm
06:25 AM 63.4°F17.4°C 56.0°F13.3°C 77% Calm Calm -- 29.91 in1012.9 mb 0.00 in0.0 mm 0.00 in0.0 mm 0.13 in3.3 mm
06:30 AM 63.4°F17.4°C 56.0°F13.3°C 77% 0.6 mph N1.0 kmh N 6.0 mph9.7 kmh 29.92 in1013.2 mb 0.00 in0.0 mm 0.00 in0.0 mm 0.13 in3.3 mm
06:35 AM 63.5°F17.5°C 56.0°F13.3°C 77% 1.6 mph N2.6 kmh N 6.0 mph9.7 kmh 29.92 in1013.2 mb 0.00 in0.0 mm 0.00 in0.0 mm 0.13 in3.3 mm
06:40 AM 63.6°F17.6°C 56.0°F13.3°C 77% 1.8 mph N2.9 kmh N 5.0 mph8.0 kmh 29.92 in1013.2 mb 0.00 in0.0 mm 0.00 in0.0 mm 0.13 in3.3 mm
06:45 AM 63.7°F17.6°C 56.0°F13.3°C 77% 1.4 mph N2.3 kmh N 4.0 mph6.4 kmh 29.92 in1013.2 mb 0.00 in0.0 mm 0.00 in0.0 mm 0.13 in3.3 mm
06:50 AM 63.8°F17.7°C 56.0°F13.3°C 76% 1.2 mph N1.9 kmh N 5.0 mph8.0 kmh 29.92 in1013.2 mb 0.00 in0.0 mm 0.00 in0.0 mm 0.13 in3.3 mm
06:55 AM 63.9°F17.7°C 57.0°F13.9°C 77% 1.4 mph N2.3 kmh N 5.0 mph8.0 kmh 29.92 in1013.2 mb 0.00 in0.0 mm 0.00 in0.0 mm 0.13 in3.3 mm
07:00 AM 63.9°F17.7°C 57.0°F13.9°C 77% 1.1 mph N1.8 kmh N 3.0 mph4.8 kmh 29.92 in1013.2 mb 0.00 in0.0 mm 0.00 in0.0 mm 0.13 in3.3 mm
07:05 AM 64.0°F17.8°C 57.0°F13.9°C 77% 1.0 mph N1.6 kmh N 4.0 mph6.4 kmh 29.93 in1013.5 mb 0.00 in0.0 mm 0.00 in0.0 mm 0.13 in3.3 mm
07:10 AM 64.1°F17.8°C 56.0°F13.3°C 76% 1.5 mph N2.4 kmh N 5.0 mph8.0 kmh 29.93 in1013.5 mb 0.00 in0.0 mm 0.00 in0.0 mm 0.14 in3.6 mm
07:15 AM 64.1°F17.8°C 56.0°F13.3°C 76% 1.8 mph N2.9 kmh N 5.0 mph8.0 kmh 29.92 in1013.2 mb 0.00 in0.0 mm 0.00 in0.0 mm 0.14 in3.6 mm
07:20 AM 64.3°F17.9°C 57.0°F13.9°C 76% 1.7 mph N2.7 kmh N 5.0 mph8.0 kmh 29.92 in1013.2 mb 0.00 in0.0 mm 0.00 in0.0 mm 0.14 in3.6 mm
07:25 AM 64.3°F17.9°C 57.0°F13.9°C 76% 1.3 mph N2.1 kmh N 3.0 mph4.8 kmh 29.93 in1013.5 mb 0.00 in0.0 mm 0.00 in0.0 mm 0.14 in3.6 mm
07:30 AM 64.3°F17.9°C 57.0°F13.9°C 76% 0.7 mph N1.1 kmh N 3.0 mph4.8 kmh 29.93 in1013.5 mb 0.00 in0.0 mm 0.00 in0.0 mm 0.14 in3.6 mm
07:35 AM 64.4°F18.0°C 57.0°F13.9°C 76% 0.5 mph N0.8 kmh N 3.0 mph4.8 kmh 29.94 in1013.9 mb 0.45 in11.4 mm 5.40 in137.2 mm 0.17 in4.3 mm
07:40 AM 64.3°F17.9°C 57.0°F13.9°C 76% 0.4 mph N0.6 kmh N 3.0 mph4.8 kmh 29.95 in1014.2 mb 0.08 in2.0 mm 0.00 in0.0 mm 0.17 in4.3 mm
07:45 AM 64.3°F17.9°C 57.0°F13.9°C 76% 0.5 mph N0.8 kmh N 4.0 mph6.4 kmh 29.96 in1014.6 mb 0.04 in1.0 mm 0.00 in0.0 mm 0.17 in4.3 mm
07:50 AM 64.3°F17.9°C 57.0°F13.9°C 76% 1.6 mph N2.6 kmh N 5.0 mph8.0 kmh 29.96 in1014.6 mb 0.03 in0.8 mm 0.00 in0.0 mm 0.17 in4.3 mm
07:55 AM 64.3°F17.9°C 57.0°F13.9°C 76% 2.0 mph N3.2 kmh N 6.0 mph9.7 kmh 29.96 in1014.6 mb 0.00 in0.0 mm 0.00 in0.0 mm 0.17 in4.3 mm
08:00 AM 64.3°F17.9°C 57.0°F13.9°C 76% 1.5 mph N2.4 kmh N 6.0 mph9.7 kmh 29.96 in1014.6 mb 0.00 in0.0 mm 0.00 in0.0 mm 0.17 in4.3 mm
08:05 AM 64.3°F17.9°C 57.0°F13.9°C 76% 1.3 mph N2.1 kmh N 5.0 mph8.0 kmh 29.96 in1014.6 mb 0.00 in0.0 mm 0.00 in0.0 mm 0.17 in4.3 mm
08:10 AM 64.3°F17.9°C 57.0°F13.9°C 76% 1.5 mph N2.4 kmh N 5.0 mph8.0 kmh 29.96 in1014.6 mb 0.00 in0.0 mm 0.00 in0.0 mm 0.17 in4.3 mm
08:15 AM 64.5°F18.1°C 57.0°F13.9°C 76% 1.8 mph N2.9 kmh N 5.0 mph8.0 kmh 29.96 in1014.6 mb 0.00 in0.0 mm 0.00 in0.0 mm 0.17 in4.3 mm
08:20 AM 64.5°F18.1°C 57.0°F13.9°C 76% 1.3 mph N2.1 kmh N 4.0 mph6.4 kmh 29.96 in1014.6 mb 0.00 in0.0 mm 0.00 in0.0 mm 0.17 in4.3 mm
08:25 AM 64.6°F18.1°C 57.0°F13.9°C 76% 0.6 mph N1.0 kmh N 4.0 mph6.4 kmh 29.97 in1014.9 mb 0.00 in0.0 mm 0.00 in0.0 mm 0.17 in4.3 mm
08:30 AM 64.7°F18.2°C 57.0°F13.9°C 76% 1.1 mph N1.8 kmh N 4.0 mph6.4 kmh 29.97 in1014.9 mb 0.00 in0.0 mm 0.00 in0.0 mm 0.17 in4.3 mm
08:35 AM 64.8°F18.2°C 57.0°F13.9°C 76% 2.6 mph N4.2 kmh N 9.0 mph14.5 kmh 29.97 in1014.9 mb 0.00 in0.0 mm 0.00 in0.0 mm 0.17 in4.3 mm
08:40 AM 64.8°F18.2°C 57.0°F13.9°C 76% 3.4 mph N5.5 kmh N 9.0 mph14.5 kmh 29.97 in1014.9 mb 0.00 in0.0 mm 0.00 in0.0 mm 0.17 in4.3 mm
08:45 AM 64.9°F18.3°C 57.0°F13.9°C 76% 3.2 mph N5.1 kmh N 11.0 mph17.7 kmh 29.97 in1014.9 mb 0.00 in0.0 mm 0.00 in0.0 mm 0.17 in4.3 mm
08:50 AM 64.9°F18.3°C 57.0°F13.9°C 76% 2.9 mph N4.7 kmh N 11.0 mph17.7 kmh 29.98 in1015.2 mb 0.00 in0.0 mm 0.00 in0.0 mm 0.17 in4.3 mm
08:55 AM 64.9°F18.3°C 57.0°F13.9°C 76% 3.2 mph N5.1 kmh N 8.0 mph12.9 kmh 29.98 in1015.2 mb 0.00 in0.0 mm 0.00 in0.0 mm 0.17 in4.3 mm
09:00 AM 65.1°F18.4°C 57.0°F13.9°C 76% 3.0 mph N4.8 kmh N 8.0 mph12.9 kmh 29.98 in1015.2 mb 0.00 in0.0 mm 0.00 in0.0 mm 0.17 in4.3 mm
09:05 AM 65.2°F18.4°C 57.0°F13.9°C 76% 2.5 mph N4.0 kmh N 6.0 mph9.7 kmh 29.98 in1015.2 mb 0.00 in0.0 mm 0.00 in0.0 mm 0.17 in4.3 mm
09:10 AM 65.3°F18.5°C 57.0°F13.9°C 76% 2.7 mph N4.3 kmh N 7.0 mph11.3 kmh 29.98 in1015.2 mb 0.00 in0.0 mm 0.00 in0.0 mm 0.18 in4.6 mm
09:15 AM 65.3°F18.5°C 58.0°F14.4°C 76% 2.6 mph N4.2 kmh N 7.0 mph11.3 kmh 29.98 in1015.2 mb 0.00 in0.0 mm 0.00 in0.0 mm 0.18 in4.6 mm
09:20 AM 65.3°F18.5°C 58.0°F14.4°C 76% 2.5 mph N4.0 kmh N 7.0 mph11.3 kmh 29.98 in1015.2 mb 0.00 in0.0 mm 0.00 in0.0 mm 0.18 in4.6 mm
09:25 AM 65.3°F18.5°C 58.0°F14.4°C 76% 2.8 mph N4.5 kmh N 8.0 mph12.9 kmh 29.99 in1015.6 mb 0.00 in0.0 mm 0.00 in0.0 mm 0.18 in4.6 mm
09:30 AM 65.5°F18.6°C 58.0°F14.4°C 76% 2.8 mph N4.5 kmh N 6.0 mph9.7 kmh 29.99 in1015.6 mb 0.00 in0.0 mm 0.00 in0.0 mm 0.18 in4.6 mm
09:35 AM 65.5°F18.6°C 58.0°F14.4°C 76% 2.2 mph N3.5 kmh N 6.0 mph9.7 kmh 29.99 in1015.6 mb 0.00 in0.0 mm 0.00 in0.0 mm 0.18 in4.6 mm
09:40 AM 65.5°F18.6°C 58.0°F14.4°C 76% 2.3 mph N3.7 kmh N 6.0 mph9.7 kmh 29.99 in1015.6 mb 0.00 in0.0 mm 0.00 in0.0 mm 0.18 in4.6 mm
09:45 AM 65.7°F18.7°C 58.0°F14.4°C 76% 3.1 mph N5.0 kmh N 9.0 mph14.5 kmh 29.99 in1015.6 mb 0.00 in0.0 mm 0.00 in0.0 mm 0.18 in4.6 mm
09:50 AM 66.2°F19.0°C 58.0°F14.4°C 76% 3.1 mph N5.0 kmh N 8.0 mph12.9 kmh 29.99 in1015.6 mb 0.00 in0.0 mm 0.00 in0.0 mm 0.18 in4.6 mm
09:55 AM 66.7°F19.3°C 59.0°F15.0°C 75% 2.5 mph SW4.0 kmh SW 7.0 mph11.3 kmh 29.99 in1015.6 mb 0.00 in0.0 mm 0.00 in0.0 mm 0.18 in4.6 mm
10:00 AM 67.2°F19.6°C 59.0°F15.0°C 75% 2.6 mph SW4.2 kmh SW 7.0 mph11.3 kmh 29.99 in1015.6 mb 0.00 in0.0 mm 0.00 in0.0 mm 0.18 in4.6 mm
10:05 AM 67.3°F19.6°C 58.0°F14.4°C 73% 3.2 mph WSW5.1 kmh WSW 8.0 mph12.9 kmh 29.99 in1015.6 mb 0.00 in0.0 mm 0.00 in0.0 mm 0.18 in4.6 mm
10:10 AM 67.2°F19.6°C 58.0°F14.4°C 73% 3.9 mph WNW6.3 kmh WNW 9.0 mph14.5 kmh 30.00 in1015.9 mb 0.00 in0.0 mm 0.00 in0.0 mm 0.18 in4.6 mm
10:15 AM 67.2°F19.6°C 58.0°F14.4°C 72% 4.0 mph N6.4 kmh N 9.0 mph14.5 kmh 30.00 in1015.9 mb 0.00 in0.0 mm 0.00 in0.0 mm 0.18 in4.6 mm
10:20 AM 67.1°F19.5°C 58.0°F14.4°C 72% 3.9 mph SW6.3 kmh SW 12.0 mph19.3 kmh 30.00 in1015.9 mb 0.00 in0.0 mm 0.00 in0.0 mm 0.18 in4.6 mm
10:25 AM 67.0°F19.4°C 58.0°F14.4°C 72% 4.1 mph NW6.6 kmh NW 12.0 mph19.3 kmh 30.00 in1015.9 mb 0.00 in0.0 mm 0.00 in0.0 mm 0.18 in4.6 mm
10:30 AM 66.9°F19.4°C 58.0°F14.4°C 73% 3.6 mph SW5.8 kmh SW 12.0 mph19.3 kmh 30.00 in1015.9 mb 0.00 in0.0 mm 0.00 in0.0 mm 0.18 in4.6 mm
10:35 AM 66.8°F19.3°C 57.0°F13.9°C 72% 3.5 mph SW5.6 kmh SW 10.0 mph16.1 kmh 30.00 in1015.9 mb 0.00 in0.0 mm 0.00 in0.0 mm 0.18 in4.6 mm
10:40 AM 66.8°F19.3°C 57.0°F13.9°C 72% 3.5 mph WSW5.6 kmh WSW 10.0 mph16.1 kmh 30.00 in1015.9 mb 0.00 in0.0 mm 0.00 in0.0 mm 0.18 in4.6 mm
10:45 AM 66.8°F19.3°C 58.0°F14.4°C 73% 3.3 mph SW5.3 kmh SW 7.0 mph11.3 kmh 30.00 in1015.9 mb 0.00 in0.0 mm 0.00 in0.0 mm 0.18 in4.6 mm
10:50 AM 67.1°F19.5°C 58.0°F14.4°C 73% 2.6 mph SSW4.2 kmh SSW 7.0 mph11.3 kmh 30.00 in1015.9 mb 0.00 in0.0 mm 0.00 in0.0 mm 0.18 in4.6 mm
10:55 AM 67.2°F19.6°C 58.0°F14.4°C 73% 2.0 mph WSW3.2 kmh WSW 7.0 mph11.3 kmh 30.00 in1015.9 mb 0.00 in0.0 mm 0.00 in0.0 mm 0.18 in4.6 mm
11:00 AM 67.1°F19.5°C 58.0°F14.4°C 73% 2.7 mph SW4.3 kmh SW 7.0 mph11.3 kmh 30.00 in1015.9 mb 0.00 in0.0 mm 0.00 in0.0 mm 0.18 in4.6 mm
11:05 AM 67.0°F19.4°C 58.0°F14.4°C 73% 2.9 mph SW4.7 kmh SW 8.0 mph12.9 kmh 30.00 in1015.9 mb 0.00 in0.0 mm 0.00 in0.0 mm 0.18 in4.6 mm
11:10 AM 67.0°F19.4°C 58.0°F14.4°C 73% 2.5 mph SW4.0 kmh SW 8.0 mph12.9 kmh 30.00 in1015.9 mb 0.00 in0.0 mm 0.00 in0.0 mm 0.18 in4.6 mm
11:15 AM 67.0°F19.4°C 58.0°F14.4°C 73% 2.6 mph SW4.2 kmh SW 8.0 mph12.9 kmh 30.00 in1015.9 mb 0.00 in0.0 mm 0.00 in0.0 mm 0.18 in4.6 mm
11:20 AM 66.9°F19.4°C 58.0°F14.4°C 73% 2.8 mph SW4.5 kmh SW 5.0 mph8.0 kmh 30.00 in1015.9 mb 0.00 in0.0 mm 0.00 in0.0 mm 0.18 in4.6 mm
11:25 AM 66.8°F19.3°C 58.0°F14.4°C 73% 3.3 mph NW5.3 kmh NW 15.0 mph24.1 kmh 30.01 in1016.3 mb 0.00 in0.0 mm 0.00 in0.0 mm 0.18 in4.6 mm
11:30 AM 65.7°F18.7°C 56.0°F13.3°C 72% 3.5 mph N5.6 kmh N 15.0 mph24.1 kmh 30.01 in1016.3 mb 0.00 in0.0 mm 0.00 in0.0 mm 0.18 in4.6 mm
11:35 AM 64.6°F18.1°C 55.0°F12.8°C 72% 3.2 mph N5.1 kmh N 9.0 mph14.5 kmh 30.01 in1016.3 mb 0.00 in0.0 mm 0.00 in0.0 mm 0.18 in4.6 mm
11:40 AM 64.0°F17.8°C 55.0°F12.8°C 73% 2.8 mph N4.5 kmh N 7.0 mph11.3 kmh 30.01 in1016.3 mb 0.00 in0.0 mm 0.00 in0.0 mm 0.18 in4.6 mm
11:45 AM 63.8°F17.7°C 55.0°F12.8°C 73% 2.2 mph N3.5 kmh N 6.0 mph9.7 kmh 30.01 in1016.3 mb 0.00 in0.0 mm 0.00 in0.0 mm 0.18 in4.6 mm
11:50 AM 63.7°F17.6°C 55.0°F12.8°C 74% 1.9 mph N3.1 kmh N 7.0 mph11.3 kmh 30.01 in1016.3 mb 0.00 in0.0 mm 0.00 in0.0 mm 0.18 in4.6 mm
11:55 AM 63.6°F17.6°C 55.0°F12.8°C 74% 2.0 mph N3.2 kmh N 8.0 mph12.9 kmh 30.02 in1016.6 mb 0.00 in0.0 mm 0.00 in0.0 mm 0.18 in4.6 mm
12:00 PM 63.5°F17.5°C 55.0°F12.8°C 74% 2.6 mph N4.2 kmh N 8.0 mph12.9 kmh 30.02 in1016.6 mb 0.00 in0.0 mm 0.00 in0.0 mm 0.18 in4.6 mm
12:05 PM 63.5°F17.5°C 55.0°F12.8°C 74% 2.2 mph N3.5 kmh N 6.0 mph9.7 kmh 30.02 in1016.6 mb 0.00 in0.0 mm 0.00 in0.0 mm 0.18 in4.6 mm
12:10 PM 63.2°F17.3°C 55.0°F12.8°C 74% 2.0 mph N3.2 kmh N 8.0 mph12.9 kmh 30.02 in1016.6 mb 0.00 in0.0 mm 0.00 in0.0 mm 0.18 in4.6 mm
12:15 PM 63.1°F17.3°C 54.0°F12.2°C 73% 2.7 mph N4.3 kmh N 8.0 mph12.9 kmh 30.03 in1016.9 mb 0.00 in0.0 mm 0.00 in0.0 mm 0.18 in4.6 mm
12:20 PM 63.2°F17.3°C 54.0°F12.2°C 73% 3.1 mph N5.0 kmh N 9.0 mph14.5 kmh 30.04 in1017.3 mb 0.00 in0.0 mm 0.00 in0.0 mm 0.18 in4.6 mm
12:25 PM 63.2°F17.3°C 54.0°F12.2°C 73% 2.8 mph N4.5 kmh N 9.0 mph14.5 kmh 30.03 in1016.9 mb 0.00 in0.0 mm 0.00 in0.0 mm 0.18 in4.6 mm
12:30 PM 63.4°F17.4°C 55.0°F12.8°C 73% 2.3 mph N3.7 kmh N 7.0 mph11.3 kmh 30.03 in1016.9 mb 0.00 in0.0 mm 0.00 in0.0 mm 0.18 in4.6 mm
12:35 PM 63.6°F17.6°C 55.0°F12.8°C 73% 2.1 mph N3.4 kmh N 7.0 mph11.3 kmh 30.03 in1016.9 mb 0.00 in0.0 mm 0.00 in0.0 mm 0.18 in4.6 mm
12:40 PM 63.6°F17.6°C 55.0°F12.8°C 73% 2.0 mph N3.2 kmh N 6.0 mph9.7 kmh 30.04 in1017.3 mb 0.00 in0.0 mm 0.00 in0.0 mm 0.18 in4.6 mm
12:45 PM 63.5°F17.5°C 54.0°F12.2°C 72% 2.0 mph N3.2 kmh N 6.0 mph9.7 kmh 30.04 in1017.3 mb 0.00 in0.0 mm 0.00 in0.0 mm 0.18 in4.6 mm
12:50 PM 63.4°F17.4°C 54.0°F12.2°C 72% 1.9 mph N3.1 kmh N 6.0 mph9.7 kmh 30.04 in1017.3 mb 0.00 in0.0 mm 0.00 in0.0 mm 0.18 in4.6 mm
12:55 PM 63.5°F17.5°C 54.0°F12.2°C 72% 1.5 mph N2.4 kmh N 6.0 mph9.7 kmh 30.04 in1017.3 mb 0.00 in0.0 mm 0.00 in0.0 mm 0.18 in4.6 mm
01:00 PM 63.7°F17.6°C 55.0°F12.8°C 72% 0.9 mph N1.4 kmh N 5.0 mph8.0 kmh 30.03 in1016.9 mb 0.00 in0.0 mm 0.00 in0.0 mm 0.18 in4.6 mm
01:05 PM 63.8°F17.7°C 55.0°F12.8°C 72% 1.1 mph N1.8 kmh N 5.0 mph8.0 kmh 30.04 in1017.3 mb 0.00 in0.0 mm 0.00 in0.0 mm 0.18 in4.6 mm
01:10 PM 63.7°F17.6°C 54.0°F12.2°C 71% 2.0 mph N3.2 kmh N 5.0 mph8.0 kmh 30.04 in1017.3 mb 0.00 in0.0 mm 0.00 in0.0 mm 0.18 in4.6 mm
01:15 PM 63.7°F17.6°C 54.0°F12.2°C 71% 2.0 mph N3.2 kmh N 5.0 mph8.0 kmh 30.04 in1017.3 mb 0.00 in0.0 mm 0.00 in0.0 mm 0.18 in4.6 mm
01:20 PM 63.7°F17.6°C 54.0°F12.2°C 71% 1.7 mph N2.7 kmh N 5.0 mph8.0 kmh 30.04 in1017.3 mb 0.00 in0.0 mm 0.00 in0.0 mm 0.18 in4.6 mm
01:25 PM 63.6°F17.6°C 54.0°F12.2°C 71% 1.5 mph N2.4 kmh N 5.0 mph8.0 kmh 30.05 in1017.6 mb 0.00 in0.0 mm 0.00 in0.0 mm 0.18 in4.6 mm
01:30 PM 63.5°F17.5°C 54.0°F12.2°C 72% 1.3 mph N2.1 kmh N 6.0 mph9.7 kmh 30.05 in1017.6 mb 0.00 in0.0 mm 0.00 in0.0 mm 0.18 in4.6 mm
01:35 PM 63.4°F17.4°C 54.0°F12.2°C 72% 1.4 mph N2.3 kmh N 6.0 mph9.7 kmh 30.05 in1017.6 mb 0.00 in0.0 mm 0.00 in0.0 mm 0.18 in4.6 mm
01:40 PM 63.3°F17.4°C 54.0°F12.2°C 72% 1.5 mph N2.4 kmh N 4.0 mph6.4 kmh 30.05 in1017.6 mb 0.00 in0.0 mm 0.00 in0.0 mm 0.18 in4.6 mm
01:45 PM 63.2°F17.3°C 54.0°F12.2°C 72% 1.3 mph N2.1 kmh N 4.0 mph6.4 kmh 30.05 in1017.6 mb 0.00 in0.0 mm 0.00 in0.0 mm 0.18 in4.6 mm
01:50 PM 63.4°F17.4°C 54.0°F12.2°C 72% 0.9 mph N1.4 kmh N 3.0 mph4.8 kmh 30.05 in1017.6 mb 0.00 in0.0 mm 0.00 in0.0 mm 0.18 in4.6 mm
01:55 PM 63.4°F17.4°C 54.0°F12.2°C 72% 0.9 mph N1.4 kmh N 5.0 mph8.0 kmh 30.05 in1017.6 mb 0.00 in0.0 mm 0.00 in0.0 mm 0.18 in4.6 mm
02:00 PM 63.7°F17.6°C 55.0°F12.8°C 72% 0.7 mph N1.1 kmh N 5.0 mph8.0 kmh 30.06 in1017.9 mb 0.00 in0.0 mm 0.00 in0.0 mm 0.18 in4.6 mm
02:05 PM 64.0°F17.8°C 55.0°F12.8°C 72% 0.3 mph N0.5 kmh N 4.0 mph6.4 kmh 30.06 in1017.9 mb 0.00 in0.0 mm 0.00 in0.0 mm 0.18 in4.6 mm
02:10 PM 64.4°F18.0°C 55.0°F12.8°C 71% 0.8 mph N1.3 kmh N 3.0 mph4.8 kmh 30.06 in1017.9 mb 0.00 in0.0 mm 0.00 in0.0 mm 0.18 in4.6 mm
02:15 PM 65.0°F18.3°C 55.0°F12.8°C 71% 1.4 mph NW2.3 kmh NW 5.0 mph8.0 kmh 30.06 in1017.9 mb 0.00 in0.0 mm 0.00 in0.0 mm 0.18 in4.6 mm
02:20 PM 66.1°F18.9°C 56.0°F13.3°C 70% 1.0 mph N1.6 kmh N 5.0 mph8.0 kmh 30.06 in1017.9 mb 0.00 in0.0 mm 0.00 in0.0 mm 0.18 in4.6 mm
02:25 PM 66.1°F18.9°C 56.0°F13.3°C 69% 0.9 mph NNW1.4 kmh NNW 4.0 mph6.4 kmh 30.06 in1017.9 mb 0.00 in0.0 mm 0.00 in0.0 mm 0.18 in4.6 mm
02:30 PM 65.9°F18.8°C 55.0°F12.8°C 68% 1.2 mph WNW1.9 kmh WNW 4.0 mph6.4 kmh 30.06 in1017.9 mb 0.00 in0.0 mm 0.00 in0.0 mm 0.18 in4.6 mm
02:35 PM 65.9°F18.8°C 55.0°F12.8°C 67% 2.0 mph NNW3.2 kmh NNW 9.0 mph14.5 kmh 30.06 in1017.9 mb 0.00 in0.0 mm 0.00 in0.0 mm 0.18 in4.6 mm
02:40 PM 65.6°F18.7°C 55.0°F12.8°C 68% 2.7 mph N4.3 kmh N 9.0 mph14.5 kmh 30.07 in1018.3 mb 0.00 in0.0 mm 0.00 in0.0 mm 0.18 in4.6 mm
02:45 PM 65.5°F18.6°C 55.0°F12.8°C 69% 2.5 mph N4.0 kmh N 9.0 mph14.5 kmh 30.07 in1018.3 mb 0.00 in0.0 mm 0.00 in0.0 mm 0.18 in4.6 mm
02:50 PM 65.4°F18.6°C 55.0°F12.8°C 69% 2.9 mph N4.7 kmh N 8.0 mph12.9 kmh 30.08 in1018.6 mb 0.00 in0.0 mm 0.00 in0.0 mm 0.18 in4.6 mm
02:55 PM 65.1°F18.4°C 55.0°F12.8°C 70% 2.7 mph NW4.3 kmh NW 7.0 mph11.3 kmh 30.08 in1018.6 mb 0.00 in0.0 mm 0.00 in0.0 mm 0.18 in4.6 mm
03:00 PM 64.7°F18.2°C 55.0°F12.8°C 70% 2.4 mph N3.9 kmh N 7.0 mph11.3 kmh 30.09 in1019.0 mb 0.00 in0.0 mm 0.00 in0.0 mm 0.18 in4.6 mm
03:05 PM 64.6°F18.1°C 55.0°F12.8°C 70% 2.6 mph N4.2 kmh N 8.0 mph12.9 kmh 30.09 in1019.0 mb 0.00 in0.0 mm 0.00 in0.0 mm 0.18 in4.6 mm
03:10 PM 64.3°F17.9°C 54.0°F12.2°C 70% 2.6 mph N4.2 kmh N 8.0 mph12.9 kmh 30.10 in1019.3 mb 0.00 in0.0 mm 0.00 in0.0 mm 0.18 in4.6 mm
03:15 PM 63.8°F17.7°C 54.0°F12.2°C 71% 3.0 mph N4.8 kmh N 7.0 mph11.3 kmh 30.10 in1019.3 mb 0.00 in0.0 mm 0.00 in0.0 mm 0.18 in4.6 mm
03:20 PM 63.4°F17.4°C 54.0°F12.2°C 72% 2.4 mph N3.9 kmh N 7.0 mph11.3 kmh 30.10 in1019.3 mb 0.00 in0.0 mm 0.00 in0.0 mm 0.18 in4.6 mm
03:25 PM 63.2°F17.3°C 54.0°F12.2°C 72% 1.9 mph N3.1 kmh N 7.0 mph11.3 kmh 30.10 in1019.3 mb 0.00 in0.0 mm 0.00 in0.0 mm 0.18 in4.6 mm
03:30 PM 63.1°F17.3°C 54.0°F12.2°C 72% 2.6 mph N4.2 kmh N 7.0 mph11.3 kmh 30.11 in1019.6 mb 0.00 in0.0 mm 0.00 in0.0 mm 0.18 in4.6 mm
03:35 PM 63.1°F17.3°C 54.0°F12.2°C 71% 3.1 mph N5.0 kmh N 8.0 mph12.9 kmh 30.11 in1019.6 mb 0.00 in0.0 mm 0.00 in0.0 mm 0.18 in4.6 mm
03:40 PM 62.9°F17.2°C 53.0°F11.7°C 71% 3.2 mph N5.1 kmh N 9.0 mph14.5 kmh 30.11 in1019.6 mb 0.00 in0.0 mm 0.00 in0.0 mm 0.18 in4.6 mm
03:45 PM 63.1°F17.3°C 54.0°F12.2°C 71% 2.8 mph N4.5 kmh N 9.0 mph14.5 kmh 30.11 in1019.6 mb 0.00 in0.0 mm 0.00 in0.0 mm 0.18 in4.6 mm
03:50 PM 63.2°F17.3°C 54.0°F12.2°C 71% 2.3 mph N3.7 kmh N 7.0 mph11.3 kmh 30.11 in1019.6 mb 0.00 in0.0 mm 0.00 in0.0 mm 0.18 in4.6 mm
03:55 PM 63.1°F17.3°C 54.0°F12.2°C 71% 2.3 mph N3.7 kmh N 7.0 mph11.3 kmh 30.11 in1019.6 mb 0.00 in0.0 mm 0.00 in0.0 mm 0.18 in4.6 mm
04:00 PM 63.2°F17.3°C 54.0°F12.2°C 71% 2.2 mph N3.5 kmh N 7.0 mph11.3 kmh 30.12 in1020.0 mb 0.00 in0.0 mm 0.00 in0.0 mm 0.18 in4.6 mm
04:05 PM 63.2°F17.3°C 53.0°F11.7°C 70% 2.7 mph N4.3 kmh N 8.0 mph12.9 kmh 30.12 in1020.0 mb 0.00 in0.0 mm 0.00 in0.0 mm 0.18 in4.6 mm
04:10 PM 63.2°F17.3°C 53.0°F11.7°C 70% 3.2 mph N5.1 kmh N 8.0 mph12.9 kmh 30.12 in1020.0 mb 0.00 in0.0 mm 0.00 in0.0 mm 0.18 in4.6 mm
04:15 PM 63.1°F17.3°C 53.0°F11.7°C 70% 2.9 mph N4.7 kmh N 6.0 mph9.7 kmh 30.12 in1020.0 mb 0.00 in0.0 mm 0.00 in0.0 mm 0.18 in4.6 mm
04:20 PM 63.0°F17.2°C 53.0°F11.7°C 70% 2.2 mph N3.5 kmh N 6.0 mph9.7 kmh 30.12 in1020.0 mb 0.00 in0.0 mm 0.00 in0.0 mm 0.18 in4.6 mm
04:25 PM 62.8°F17.1°C 52.0°F11.1°C 69% 2.0 mph N3.2 kmh N 7.0 mph11.3 kmh 30.12 in1020.0 mb 0.00 in0.0 mm 0.00 in0.0 mm 0.18 in4.6 mm
04:30 PM 62.7°F17.1°C 53.0°F11.7°C 70% 2.4 mph N3.9 kmh N 8.0 mph12.9 kmh 30.13 in1020.3 mb 0.00 in0.0 mm 0.00 in0.0 mm 0.18 in4.6 mm
04:35 PM 62.7°F17.1°C 52.0°F11.1°C 69% 2.0 mph N3.2 kmh N 5.0 mph8.0 kmh 30.13 in1020.3 mb 0.00 in0.0 mm 0.00 in0.0 mm 0.18 in4.6 mm
04:40 PM 62.8°F17.1°C 52.0°F11.1°C 69% 1.9 mph N3.1 kmh N 9.0 mph14.5 kmh 30.13 in1020.3 mb 0.00 in0.0 mm 0.00 in0.0 mm 0.18 in4.6 mm
04:45 PM 62.8°F17.1°C 52.0°F11.1°C 69% 2.0 mph N3.2 kmh N 9.0 mph14.5 kmh 30.13 in1020.3 mb 0.00 in0.0 mm 0.00 in0.0 mm 0.18 in4.6 mm
04:50 PM 62.7°F17.1°C 52.0°F11.1°C 68% 2.3 mph N3.7 kmh N 7.0 mph11.3 kmh 30.13 in1020.3 mb 0.00 in0.0 mm 0.00 in0.0 mm 0.18 in4.6 mm
04:55 PM 62.6°F17.0°C 52.0°F11.1°C 68% 2.8 mph N4.5 kmh N 8.0 mph12.9 kmh 30.14 in1020.7 mb 0.00 in0.0 mm 0.00 in0.0 mm 0.18 in4.6 mm
05:00 PM 62.7°F17.1°C 52.0°F11.1°C 69% 2.2 mph N3.5 kmh N 8.0 mph12.9 kmh 30.14 in1020.7 mb 0.00 in0.0 mm 0.00 in0.0 mm 0.18 in4.6 mm
05:05 PM 62.7°F17.1°C 52.0°F11.1°C 69% 2.2 mph N3.5 kmh N 7.0 mph11.3 kmh 30.14 in1020.7 mb 0.00 in0.0 mm 0.00 in0.0 mm 0.18 in4.6 mm
05:10 PM 62.6°F17.0°C 52.0°F11.1°C 68% 2.4 mph N3.9 kmh N 7.0 mph11.3 kmh 30.14 in1020.7 mb 0.00 in0.0 mm 0.00 in0.0 mm 0.18 in4.6 mm
05:15 PM 62.7°F17.1°C 52.0°F11.1°C 69% 1.9 mph N3.1 kmh N 8.0 mph12.9 kmh 30.14 in1020.7 mb 0.00 in0.0 mm 0.00 in0.0 mm 0.18 in4.6 mm
05:20 PM 62.6°F17.0°C 52.0°F11.1°C 69% 2.0 mph N3.2 kmh N 6.0 mph9.7 kmh 30.14 in1020.7 mb 0.00 in0.0 mm 0.00 in0.0 mm 0.18 in4.6 mm
05:25 PM 62.5°F16.9°C 52.0°F11.1°C 69% 1.8 mph N2.9 kmh N 6.0 mph9.7 kmh 30.15 in1021.0 mb 0.00 in0.0 mm 0.00 in0.0 mm 0.18 in4.6 mm
05:30 PM 62.4°F16.9°C 52.0°F11.1°C 69% 1.8 mph N2.9 kmh N 7.0 mph11.3 kmh 30.15 in1021.0 mb 0.00 in0.0 mm 0.00 in0.0 mm 0.18 in4.6 mm
05:35 PM 62.4°F16.9°C 52.0°F11.1°C 69% 2.0 mph N3.2 kmh N 7.0 mph11.3 kmh 30.15 in1021.0 mb 0.00 in0.0 mm 0.00 in0.0 mm 0.18 in4.6 mm
05:40 PM 62.2°F16.8°C 52.0°F11.1°C 69% 2.2 mph N3.5 kmh N 7.0 mph11.3 kmh 30.15 in1021.0 mb 0.00 in0.0 mm 0.00 in0.0 mm 0.18 in4.6 mm
05:45 PM 62.1°F16.7°C 52.0°F11.1°C 70% 2.5 mph N4.0 kmh N 7.0 mph11.3 kmh 30.15 in1021.0 mb 0.00 in0.0 mm 0.00 in0.0 mm 0.18 in4.6 mm
05:50 PM 61.9°F16.6°C 52.0°F11.1°C 70% 2.2 mph N3.5 kmh N 5.0 mph8.0 kmh 30.15 in1021.0 mb 0.00 in0.0 mm 0.00 in0.0 mm 0.18 in4.6 mm
05:55 PM 61.8°F16.6°C 52.0°F11.1°C 70% 1.9 mph N3.1 kmh N 6.0 mph9.7 kmh 30.15 in1021.0 mb 0.00 in0.0 mm 0.00 in0.0 mm 0.18 in4.6 mm
06:00 PM 61.7°F16.5°C 52.0°F11.1°C 70% 2.3 mph N3.7 kmh N 9.0 mph14.5 kmh 30.16 in1021.3 mb 0.00 in0.0 mm 0.00 in0.0 mm 0.18 in4.6 mm
06:05 PM 61.6°F16.4°C 52.0°F11.1°C 70% 2.2 mph N3.5 kmh N 9.0 mph14.5 kmh 30.16 in1021.3 mb 0.00 in0.0 mm 0.00 in0.0 mm 0.18 in4.6 mm
06:10 PM 61.5°F16.4°C 52.0°F11.1°C 70% 1.5 mph N2.4 kmh N 5.0 mph8.0 kmh 30.17 in1021.7 mb 0.00 in0.0 mm 0.00 in0.0 mm 0.18 in4.6 mm
06:15 PM 61.2°F16.2°C 51.0°F10.6°C 70% 2.0 mph N3.2 kmh N 7.0 mph11.3 kmh 30.17 in1021.7 mb 0.00 in0.0 mm 0.00 in0.0 mm 0.18 in4.6 mm
06:20 PM 61.0°F16.1°C 51.0°F10.6°C 70% 2.5 mph N4.0 kmh N 7.0 mph11.3 kmh 30.17 in1021.7 mb 0.00 in0.0 mm 0.00 in0.0 mm 0.18 in4.6 mm
06:25 PM 60.7°F15.9°C 51.0°F10.6°C 70% 2.1 mph N3.4 kmh N 7.0 mph11.3 kmh 30.17 in1021.7 mb 0.00 in0.0 mm 0.00 in0.0 mm 0.18 in4.6 mm
06:30 PM 60.4°F15.8°C 51.0°F10.6°C 70% 2.3 mph N3.7 kmh N 9.0 mph14.5 kmh 30.17 in1021.7 mb 0.00 in0.0 mm 0.00 in0.0 mm 0.18 in4.6 mm
06:35 PM 60.1°F15.6°C 50.0°F10.0°C 70% 2.6 mph N4.2 kmh N 9.0 mph14.5 kmh 30.17 in1021.7 mb 0.00 in0.0 mm 0.00 in0.0 mm 0.18 in4.6 mm
06:40 PM 59.9°F15.5°C 50.0°F10.0°C 70% 2.8 mph N4.5 kmh N 9.0 mph14.5 kmh 30.18 in1022.0 mb 0.00 in0.0 mm 0.00 in0.0 mm 0.18 in4.6 mm
06:45 PM 59.7°F15.4°C 50.0°F10.0°C 70% 2.3 mph N3.7 kmh N 9.0 mph14.5 kmh 30.18 in1022.0 mb 0.00 in0.0 mm 0.00 in0.0 mm 0.18 in4.6 mm
06:50 PM 59.4°F15.2°C 50.0°F10.0°C 71% 1.4 mph N2.3 kmh N 7.0 mph11.3 kmh 30.18 in1022.0 mb 0.00 in0.0 mm 0.00 in0.0 mm 0.18 in4.6 mm
06:55 PM 59.0°F15.0°C 50.0°F10.0°C 71% 1.9 mph N3.1 kmh N 5.0 mph8.0 kmh 30.18 in1022.0 mb 0.00 in0.0 mm 0.00 in0.0 mm 0.18 in4.6 mm
07:00 PM 58.6°F14.8°C 50.0°F10.0°C 72% 2.1 mph N3.4 kmh N 5.0 mph8.0 kmh 30.18 in1022.0 mb 0.00 in0.0 mm 0.00 in0.0 mm 0.18 in4.6 mm
07:05 PM 58.5°F14.7°C 49.0°F9.4°C 72% 2.0 mph N3.2 kmh N 6.0 mph9.7 kmh 30.18 in1022.0 mb 0.00 in0.0 mm 0.00 in0.0 mm 0.18 in4.6 mm
07:10 PM 58.3°F14.6°C 49.0°F9.4°C 72% 2.6 mph N4.2 kmh N 8.0 mph12.9 kmh 30.18 in1022.0 mb 0.00 in0.0 mm 0.00 in0.0 mm 0.18 in4.6 mm
07:15 PM 58.0°F14.4°C 49.0°F9.4°C 72% 2.6 mph N4.2 kmh N 8.0 mph12.9 kmh 30.19 in1022.4 mb 0.00 in0.0 mm 0.00 in0.0 mm 0.18 in4.6 mm
07:20 PM 57.8°F14.3°C 49.0°F9.4°C 72% 2.2 mph N3.5 kmh N 6.0 mph9.7 kmh 30.18 in1022.0 mb 0.00 in0.0 mm 0.00 in0.0 mm 0.18 in4.6 mm
07:25 PM 57.5°F14.2°C 49.0°F9.4°C 73% 2.2 mph N3.5 kmh N 6.0 mph9.7 kmh 30.19 in1022.4 mb 0.00 in0.0 mm 0.00 in0.0 mm 0.18 in4.6 mm
07:30 PM 57.3°F14.1°C 49.0°F9.4°C 73% 2.1 mph N3.4 kmh N 6.0 mph9.7 kmh 30.19 in1022.4 mb 0.00 in0.0 mm 0.00 in0.0 mm 0.18 in4.6 mm
07:35 PM 57.1°F13.9°C 49.0°F9.4°C 73% 1.9 mph N3.1 kmh N 6.0 mph9.7 kmh 30.19 in1022.4 mb 0.00 in0.0 mm 0.00 in0.0 mm 0.18 in4.6 mm
07:40 PM 56.9°F13.8°C 48.0°F8.9°C 73% 1.9 mph N3.1 kmh N 8.0 mph12.9 kmh 30.19 in1022.4 mb 0.00 in0.0 mm 0.00 in0.0 mm 0.18 in4.6 mm
07:45 PM 56.8°F13.8°C 48.0°F8.9°C 73% 2.3 mph N3.7 kmh N 8.0 mph12.9 kmh 30.19 in1022.4 mb 0.00 in0.0 mm 0.00 in0.0 mm 0.18 in4.6 mm
07:50 PM 56.7°F13.7°C 48.0°F8.9°C 73% 2.3 mph N3.7 kmh N 7.0 mph11.3 kmh 30.19 in1022.4 mb 0.00 in0.0 mm 0.00 in0.0 mm 0.18 in4.6 mm
07:55 PM 56.6°F13.7°C 48.0°F8.9°C 74% 2.2 mph N3.5 kmh N 7.0 mph11.3 kmh 30.20 in1022.7 mb 0.00 in0.0 mm 0.00 in0.0 mm 0.18 in4.6 mm
08:00 PM 56.4°F13.6°C 48.0°F8.9°C 74% 1.9 mph N3.1 kmh N 7.0 mph11.3 kmh 30.20 in1022.7 mb 0.00 in0.0 mm 0.00 in0.0 mm 0.18 in4.6 mm
08:05 PM 56.4°F13.6°C 48.0°F8.9°C 74% 1.8 mph N2.9 kmh N 9.0 mph14.5 kmh 30.20 in1022.7 mb 0.00 in0.0 mm 0.00 in0.0 mm 0.18 in4.6 mm
08:10 PM 56.2°F13.4°C 48.0°F8.9°C 74% 1.7 mph N2.7 kmh N 9.0 mph14.5 kmh 30.20 in1022.7 mb 0.00 in0.0 mm 0.00 in0.0 mm 0.18 in4.6 mm
08:15 PM 56.1°F13.4°C 48.0°F8.9°C 74% 1.2 mph N1.9 kmh N 5.0 mph8.0 kmh 30.20 in1022.7 mb 0.00 in0.0 mm 0.00 in0.0 mm 0.18 in4.6 mm
08:20 PM 56.0°F13.3°C 48.0°F8.9°C 74% 1.1 mph N1.8 kmh N 5.0 mph8.0 kmh 30.20 in1022.7 mb 0.00 in0.0 mm 0.00 in0.0 mm 0.18 in4.6 mm
08:25 PM 55.9°F13.3°C 48.0°F8.9°C 74% 0.9 mph N1.4 kmh N 5.0 mph8.0 kmh 30.21 in1023.0 mb 0.00 in0.0 mm 0.00 in0.0 mm 0.18 in4.6 mm
08:30 PM 55.7°F13.2°C 48.0°F8.9°C 74% 0.8 mph N1.3 kmh N 3.0 mph4.8 kmh 30.21 in1023.0 mb 0.00 in0.0 mm 0.00 in0.0 mm 0.18 in4.6 mm
08:35 PM 55.7°F13.2°C 48.0°F8.9°C 74% 0.6 mph N1.0 kmh N 3.0 mph4.8 kmh 30.21 in1023.0 mb 0.00 in0.0 mm 0.00 in0.0 mm 0.18 in4.6 mm
08:40 PM 55.7°F13.2°C 47.0°F8.3°C 74% 0.7 mph N1.1 kmh N 3.0 mph4.8 kmh 30.21 in1023.0 mb 0.00 in0.0 mm 0.00 in0.0 mm 0.18 in4.6 mm
08:45 PM 55.5°F13.1°C 47.0°F8.3°C 74% 0.5 mph N0.8 kmh N 3.0 mph4.8 kmh 30.21 in1023.0 mb 0.00 in0.0 mm 0.00 in0.0 mm 0.18 in4.6 mm
08:50 PM 55.5°F13.1°C 47.0°F8.3°C 74% 0.2 mph N0.3 kmh N 4.0 mph6.4 kmh 30.22 in1023.4 mb 0.00 in0.0 mm 0.00 in0.0 mm 0.18 in4.6 mm
08:55 PM 55.4°F13.0°C 47.0°F8.3°C 74% 0.6 mph N1.0 kmh N 4.0 mph6.4 kmh 30.22 in1023.4 mb 0.00 in0.0 mm 0.00 in0.0 mm 0.18 in4.6 mm
09:00 PM 55.4°F13.0°C 47.0°F8.3°C 74% 0.7 mph N1.1 kmh N 4.0 mph6.4 kmh 30.22 in1023.4 mb 0.00 in0.0 mm 0.00 in0.0 mm 0.18 in4.6 mm
09:05 PM 55.1°F12.8°C 47.0°F8.3°C 74% 0.3 mph N0.5 kmh N 3.0 mph4.8 kmh 30.22 in1023.4 mb 0.00 in0.0 mm 0.00 in0.0 mm 0.18 in4.6 mm
09:10 PM 55.0°F12.8°C 47.0°F8.3°C 74% Calm Calm -- 30.22 in1023.4 mb 0.00 in0.0 mm 0.00 in0.0 mm 0.18 in4.6 mm
09:15 PM 54.8°F12.7°C 47.0°F8.3°C 74% Calm Calm -- 30.22 in1023.4 mb 0.00 in0.0 mm 0.00 in0.0 mm 0.18 in4.6 mm
09:20 PM 54.6°F12.6°C 46.0°F7.8°C 74% Calm Calm -- 30.23 in1023.7 mb 0.00 in0.0 mm 0.00 in0.0 mm 0.18 in4.6 mm
09:25 PM 54.5°F12.5°C 46.0°F7.8°C 74% Calm Calm -- 30.23 in1023.7 mb 0.00 in0.0 mm 0.00 in0.0 mm 0.18 in4.6 mm
09:30 PM 54.4°F12.4°C 46.0°F7.8°C 74% Calm Calm -- 30.23 in1023.7 mb 0.00 in0.0 mm 0.00 in0.0 mm 0.18 in4.6 mm
09:35 PM 54.2°F12.3°C 46.0°F7.8°C 74% Calm Calm -- 30.23 in1023.7 mb 0.00 in0.0 mm 0.00 in0.0 mm 0.18 in4.6 mm
09:40 PM 54.2°F12.3°C 46.0°F7.8°C 75% Calm Calm -- 30.23 in1023.7 mb 0.00 in0.0 mm 0.00 in0.0 mm 0.18 in4.6 mm
09:45 PM 54.3°F12.4°C 47.0°F8.3°C 75% Calm Calm -- 30.23 in1023.7 mb 0.00 in0.0 mm 0.00 in0.0 mm 0.18 in4.6 mm
09:50 PM 54.2°F12.3°C 46.0°F7.8°C 74% Calm Calm -- 30.24 in1024.0 mb 0.00 in0.0 mm 0.00 in0.0 mm 0.18 in4.6 mm
09:55 PM 54.0°F12.2°C 46.0°F7.8°C 75% Calm Calm -- 30.24 in1024.0 mb 0.00 in0.0 mm 0.00 in0.0 mm 0.18 in4.6 mm
10:00 PM 54.0°F12.2°C 46.0°F7.8°C 75% Calm Calm -- 30.24 in1024.0 mb 0.00 in0.0 mm 0.00 in0.0 mm 0.18 in4.6 mm
10:05 PM 53.8°F12.1°C 46.0°F7.8°C 75% Calm Calm -- 30.24 in1024.0 mb 0.00 in0.0 mm 0.00 in0.0 mm 0.18 in4.6 mm
10:10 PM 53.7°F12.1°C 46.0°F7.8°C 75% Calm Calm -- 30.24 in1024.0 mb 0.00 in0.0 mm 0.00 in0.0 mm 0.18 in4.6 mm
10:15 PM 53.4°F11.9°C 46.0°F7.8°C 75% Calm Calm -- 30.24 in1024.0 mb 0.00 in0.0 mm 0.00 in0.0 mm 0.18 in4.6 mm
10:20 PM 53.3°F11.8°C 46.0°F7.8°C 75% Calm Calm -- 30.24 in1024.0 mb 0.00 in0.0 mm 0.00 in0.0 mm 0.18 in4.6 mm
10:25 PM 53.0°F11.7°C 45.0°F7.2°C 75% Calm Calm -- 30.24 in1024.0 mb 0.00 in0.0 mm 0.00 in0.0 mm 0.18 in4.6 mm
10:30 PM 53.0°F11.7°C 46.0°F7.8°C 76% Calm Calm -- 30.24 in1024.0 mb 0.00 in0.0 mm 0.00 in0.0 mm 0.18 in4.6 mm
10:35 PM 53.0°F11.7°C 46.0°F7.8°C 76% Calm Calm -- 30.24 in1024.0 mb 0.00 in0.0 mm 0.00 in0.0 mm 0.18 in4.6 mm
10:40 PM 52.8°F11.6°C 45.0°F7.2°C 76% Calm Calm -- 30.24 in1024.0 mb 0.00 in0.0 mm 0.00 in0.0 mm 0.18 in4.6 mm
10:45 PM 52.8°F11.6°C 45.0°F7.2°C 76% Calm Calm -- 30.23 in1023.7 mb 0.00 in0.0 mm 0.00 in0.0 mm 0.18 in4.6 mm
10:50 PM 52.4°F11.3°C 45.0°F7.2°C 76% Calm Calm -- 30.23 in1023.7 mb 0.00 in0.0 mm 0.00 in0.0 mm 0.18 in4.6 mm
10:55 PM 52.3°F11.3°C 45.0°F7.2°C 76% Calm Calm -- 30.25 in1024.4 mb 0.00 in0.0 mm 0.00 in0.0 mm 0.18 in4.6 mm
11:00 PM 52.3°F11.3°C 45.0°F7.2°C 77% Calm Calm -- 30.25 in1024.4 mb 0.00 in0.0 mm 0.00 in0.0 mm 0.83 in21.1 mm
11:05 PM 52.7°F11.5°C 46.0°F7.8°C 77% Calm Calm -- 30.25 in1024.4 mb 0.00 in0.0 mm 0.00 in0.0 mm 0.83 in21.1 mm
11:10 PM 52.5°F11.4°C 45.0°F7.2°C 77% Calm Calm -- 30.25 in1024.4 mb 0.00 in0.0 mm 0.00 in0.0 mm 0.83 in21.1 mm
11:15 PM 52.5°F11.4°C 45.0°F7.2°C 77% Calm Calm -- 30.26 in1024.7 mb 0.00 in0.0 mm 0.00 in0.0 mm 0.83 in21.1 mm
11:20 PM 52.5°F11.4°C 45.0°F7.2°C 77% Calm Calm -- 30.26 in1024.7 mb 0.00 in0.0 mm 0.00 in0.0 mm 0.83 in21.1 mm
11:25 PM 52.1°F11.2°C 45.0°F7.2°C 76% Calm Calm -- 30.26 in1024.7 mb 0.00 in0.0 mm 0.00 in0.0 mm 0.83 in21.1 mm
11:30 PM 51.8°F11.0°C 44.0°F6.7°C 76% Calm Calm -- 30.26 in1024.7 mb 0.00 in0.0 mm 0.00 in0.0 mm 0.83 in21.1 mm
11:35 PM 51.7°F10.9°C 45.0°F7.2°C 77% Calm Calm -- 30.27 in1025.1 mb 0.00 in0.0 mm 0.00 in0.0 mm 0.83 in21.1 mm
11:40 PM 51.7°F10.9°C 45.0°F7.2°C 77% Calm Calm -- 30.27 in1025.1 mb 0.00 in0.0 mm 0.00 in0.0 mm 0.83 in21.1 mm
11:45 PM 51.8°F11.0°C 45.0°F7.2°C 77% Calm Calm -- 30.26 in1024.7 mb 0.00 in0.0 mm 0.00 in0.0 mm 0.83 in21.1 mm
11:50 PM 51.6°F10.9°C 45.0°F7.2°C 77% Calm Calm 2.0 mph3.2 kmh 30.26 in1024.7 mb 0.00 in0.0 mm 0.00 in0.0 mm 0.83 in21.1 mm
11:55 PM 52.1°F11.2°C 45.0°F7.2°C 77% 0.1 mph N0.2 kmh N 2.0 mph3.2 kmh 30.26 in1024.7 mb 0.00 in0.0 mm 0.00 in0.0 mm 0.83 in21.1 mm